sensor_id;sensor_type;location;lat;lon;timestamp;P1;durP1;ratioP1;P2;durP2;ratioP2
11935;SDS011;6027;48.576;9.180;2023-01-26T00:01:25;17.87;;;16.03;;
11935;SDS011;6027;48.576;9.180;2023-01-26T00:03:53;20.00;;;17.07;;
11935;SDS011;6027;48.576;9.180;2023-01-26T00:06:20;18.80;;;16.33;;
11935;SDS011;6027;48.576;9.180;2023-01-26T00:08:53;21.53;;;18.37;;
11935;SDS011;6027;48.576;9.180;2023-01-26T00:11:20;19.43;;;17.10;;
11935;SDS011;6027;48.576;9.180;2023-01-26T00:13:52;19.63;;;17.27;;
11935;SDS011;6027;48.576;9.180;2023-01-26T00:16:18;20.20;;;17.37;;
11935;SDS011;6027;48.576;9.180;2023-01-26T00:18:44;19.07;;;17.17;;
11935;SDS011;6027;48.576;9.180;2023-01-26T00:21:11;19.30;;;16.77;;
11935;SDS011;6027;48.576;9.180;2023-01-26T00:23:38;21.70;;;19.03;;
11935;SDS011;6027;48.576;9.180;2023-01-26T00:26:04;21.80;;;19.60;;
11935;SDS011;6027;48.576;9.180;2023-01-26T00:28:31;20.63;;;18.43;;
11935;SDS011;6027;48.576;9.180;2023-01-26T00:33:28;19.40;;;17.30;;
11935;SDS011;6027;48.576;9.180;2023-01-26T00:35:54;20.10;;;17.97;;
11935;SDS011;6027;48.576;9.180;2023-01-26T00:38:19;21.00;;;18.97;;
11935;SDS011;6027;48.576;9.180;2023-01-26T00:40:45;20.53;;;18.43;;
11935;SDS011;6027;48.576;9.180;2023-01-26T00:43:10;18.33;;;16.43;;
11935;SDS011;6027;48.576;9.180;2023-01-26T00:45:35;19.43;;;17.43;;
11935;SDS011;6027;48.576;9.180;2023-01-26T00:48:01;20.37;;;18.27;;
11935;SDS011;6027;48.576;9.180;2023-01-26T00:50:26;17.70;;;15.90;;
11935;SDS011;6027;48.576;9.180;2023-01-26T00:52:52;19.10;;;17.03;;
11935;SDS011;6027;48.576;9.180;2023-01-26T00:55:18;19.90;;;17.83;;
11935;SDS011;6027;48.576;9.180;2023-01-26T00:57:44;18.70;;;16.70;;
11935;SDS011;6027;48.576;9.180;2023-01-26T01:00:09;20.20;;;18.07;;
11935;SDS011;6027;48.576;9.180;2023-01-26T01:02:40;19.67;;;16.93;;
11935;SDS011;6027;48.576;9.180;2023-01-26T01:05:09;18.67;;;16.50;;
11935;SDS011;6027;48.576;9.180;2023-01-26T01:07:35;20.73;;;18.43;;
11935;SDS011;6027;48.576;9.180;2023-01-26T01:10:00;19.80;;;17.80;;
11935;SDS011;6027;48.576;9.180;2023-01-26T01:12:26;21.50;;;19.20;;
11935;SDS011;6027;48.576;9.180;2023-01-26T01:14:51;20.53;;;18.33;;
11935;SDS011;6027;48.576;9.180;2023-01-26T01:17:17;19.10;;;16.37;;
11935;SDS011;6027;48.576;9.180;2023-01-26T01:19:42;19.43;;;17.17;;
11935;SDS011;6027;48.576;9.180;2023-01-26T01:22:08;21.40;;;19.10;;
11935;SDS011;6027;48.576;9.180;2023-01-26T01:24:33;20.80;;;17.67;;
11935;SDS011;6027;48.576;9.180;2023-01-26T01:26:59;20.33;;;18.20;;
11935;SDS011;6027;48.576;9.180;2023-01-26T01:29:25;21.60;;;19.30;;
11935;SDS011;6027;48.576;9.180;2023-01-26T01:31:51;20.70;;;18.33;;
11935;SDS011;6027;48.576;9.180;2023-01-26T01:34:16;19.30;;;17.07;;
11935;SDS011;6027;48.576;9.180;2023-01-26T01:36:42;19.70;;;17.60;;
11935;SDS011;6027;48.576;9.180;2023-01-26T01:39:07;21.47;;;18.07;;
11935;SDS011;6027;48.576;9.180;2023-01-26T01:41:33;20.77;;;17.10;;
11935;SDS011;6027;48.576;9.180;2023-01-26T01:44:14;23.10;;;18.30;;
11935;SDS011;6027;48.576;9.180;2023-01-26T01:46:50;18.97;;;16.90;;
11935;SDS011;6027;48.576;9.180;2023-01-26T01:49:39;21.87;;;19.27;;
11935;SDS011;6027;48.576;9.180;2023-01-26T01:52:20;23.27;;;18.60;;
11935;SDS011;6027;48.576;9.180;2023-01-26T01:54:51;22.20;;;19.37;;
11935;SDS011;6027;48.576;9.180;2023-01-26T01:57:24;21.57;;;18.60;;
11935;SDS011;6027;48.576;9.180;2023-01-26T02:00:26;23.27;;;20.73;;
11935;SDS011;6027;48.576;9.180;2023-01-26T02:02:50;23.77;;;20.37;;
11935;SDS011;6027;48.576;9.180;2023-01-26T02:08:17;20.43;;;18.10;;
11935;SDS011;6027;48.576;9.180;2023-01-26T02:10:45;23.00;;;19.27;;
11935;SDS011;6027;48.576;9.180;2023-01-26T02:13:12;22.57;;;18.60;;
11935;SDS011;6027;48.576;9.180;2023-01-26T02:15:39;22.00;;;18.77;;
11935;SDS011;6027;48.576;9.180;2023-01-26T02:18:05;21.10;;;18.80;;
11935;SDS011;6027;48.576;9.180;2023-01-26T02:20:49;19.93;;;17.83;;
11935;SDS011;6027;48.576;9.180;2023-01-26T02:26:06;24.73;;;19.80;;
11935;SDS011;6027;48.576;9.180;2023-01-26T02:28:35;22.37;;;19.33;;
11935;SDS011;6027;48.576;9.180;2023-01-26T02:31:01;27.73;;;18.47;;
11935;SDS011;6027;48.576;9.180;2023-01-26T02:33:28;22.07;;;17.83;;
11935;SDS011;6027;48.576;9.180;2023-01-26T02:35:55;22.30;;;20.10;;
11935;SDS011;6027;48.576;9.180;2023-01-26T02:38:21;22.00;;;19.67;;
11935;SDS011;6027;48.576;9.180;2023-01-26T02:43:35;23.00;;;20.07;;
11935;SDS011;6027;48.576;9.180;2023-01-26T02:46:00;23.50;;;21.00;;
11935;SDS011;6027;48.576;9.180;2023-01-26T02:48:26;23.77;;;19.70;;
11935;SDS011;6027;48.576;9.180;2023-01-26T02:51:10;21.53;;;19.23;;
11935;SDS011;6027;48.576;9.180;2023-01-26T02:53:35;21.00;;;18.70;;
11935;SDS011;6027;48.576;9.180;2023-01-26T02:56:01;24.33;;;22.00;;
11935;SDS011;6027;48.576;9.180;2023-01-26T02:58:26;22.67;;;20.40;;
11935;SDS011;6027;48.576;9.180;2023-01-26T03:00:52;21.93;;;19.83;;
11935;SDS011;6027;48.576;9.180;2023-01-26T03:03:24;20.87;;;18.37;;
11935;SDS011;6027;48.576;9.180;2023-01-26T03:06:08;20.00;;;17.70;;
11935;SDS011;6027;48.576;9.180;2023-01-26T03:08:34;21.80;;;19.20;;
11935;SDS011;6027;48.576;9.180;2023-01-26T03:11:00;23.03;;;19.37;;
11935;SDS011;6027;48.576;9.180;2023-01-26T03:13:25;24.17;;;18.50;;
11935;SDS011;6027;48.576;9.180;2023-01-26T03:15:51;24.97;;;20.53;;
11935;SDS011;6027;48.576;9.180;2023-01-26T03:18:19;23.70;;;18.80;;
11935;SDS011;6027;48.576;9.180;2023-01-26T03:21:05;22.03;;;17.80;;
11935;SDS011;6027;48.576;9.180;2023-01-26T03:23:52;22.60;;;18.27;;
11935;SDS011;6027;48.576;9.180;2023-01-26T03:26:37;24.37;;;19.80;;
11935;SDS011;6027;48.576;9.180;2023-01-26T03:29:22;22.03;;;18.97;;
11935;SDS011;6027;48.576;9.180;2023-01-26T03:31:48;21.60;;;17.63;;
11935;SDS011;6027;48.576;9.180;2023-01-26T03:34:14;23.77;;;20.27;;
11935;SDS011;6027;48.576;9.180;2023-01-26T03:36:39;23.07;;;18.77;;
11935;SDS011;6027;48.576;9.180;2023-01-26T03:39:05;24.57;;;20.83;;
11935;SDS011;6027;48.576;9.180;2023-01-26T03:41:30;25.13;;;20.23;;
11935;SDS011;6027;48.576;9.180;2023-01-26T03:44:14;25.13;;;20.37;;
11935;SDS011;6027;48.576;9.180;2023-01-26T03:46:58;23.07;;;19.60;;
11935;SDS011;6027;48.576;9.180;2023-01-26T03:49:43;23.67;;;19.00;;
11935;SDS011;6027;48.576;9.180;2023-01-26T03:52:27;18.10;;;15.53;;
11935;SDS011;6027;48.576;9.180;2023-01-26T03:55:11;19.17;;;15.80;;
11935;SDS011;6027;48.576;9.180;2023-01-26T03:57:55;20.57;;;17.47;;
11935;SDS011;6027;48.576;9.180;2023-01-26T04:00:20;20.63;;;15.90;;
11935;SDS011;6027;48.576;9.180;2023-01-26T04:02:46;18.43;;;16.10;;
11935;SDS011;6027;48.576;9.180;2023-01-26T04:05:30;21.53;;;17.80;;
11935;SDS011;6027;48.576;9.180;2023-01-26T04:08:14;24.13;;;20.03;;
11935;SDS011;6027;48.576;9.180;2023-01-26T04:10:51;22.23;;;17.53;;
11935;SDS011;6027;48.576;9.180;2023-01-26T04:13:17;21.87;;;17.40;;
11935;SDS011;6027;48.576;9.180;2023-01-26T04:16:02;21.90;;;16.97;;
11935;SDS011;6027;48.576;9.180;2023-01-26T04:18:47;22.30;;;17.77;;
11935;SDS011;6027;48.576;9.180;2023-01-26T04:21:31;20.30;;;17.53;;
11935;SDS011;6027;48.576;9.180;2023-01-26T04:24:01;24.23;;;19.37;;
11935;SDS011;6027;48.576;9.180;2023-01-26T04:26:33;21.40;;;18.57;;
11935;SDS011;6027;48.576;9.180;2023-01-26T04:29:01;24.87;;;19.90;;
11935;SDS011;6027;48.576;9.180;2023-01-26T04:31:27;23.23;;;18.57;;
11935;SDS011;6027;48.576;9.180;2023-01-26T04:33:53;23.70;;;20.00;;
11935;SDS011;6027;48.576;9.180;2023-01-26T04:36:18;25.60;;;19.27;;
11935;SDS011;6027;48.576;9.180;2023-01-26T04:38:43;22.00;;;17.53;;
11935;SDS011;6027;48.576;9.180;2023-01-26T04:41:09;23.27;;;17.90;;
11935;SDS011;6027;48.576;9.180;2023-01-26T04:43:35;21.77;;;17.87;;
11935;SDS011;6027;48.576;9.180;2023-01-26T04:46:04;22.63;;;18.00;;
11935;SDS011;6027;48.576;9.180;2023-01-26T04:48:31;24.70;;;18.23;;
11935;SDS011;6027;48.576;9.180;2023-01-26T04:50:58;25.60;;;19.23;;
11935;SDS011;6027;48.576;9.180;2023-01-26T04:53:26;22.87;;;19.40;;
11935;SDS011;6027;48.576;9.180;2023-01-26T04:55:52;23.57;;;18.70;;
11935;SDS011;6027;48.576;9.180;2023-01-26T04:58:17;23.10;;;20.60;;
11935;SDS011;6027;48.576;9.180;2023-01-26T05:00:43;23.90;;;18.87;;
11935;SDS011;6027;48.576;9.180;2023-01-26T05:03:14;26.77;;;19.27;;
11935;SDS011;6027;48.576;9.180;2023-01-26T05:05:39;22.90;;;18.47;;
11935;SDS011;6027;48.576;9.180;2023-01-26T05:08:05;22.07;;;16.87;;
11935;SDS011;6027;48.576;9.180;2023-01-26T05:10:31;21.37;;;17.53;;
11935;SDS011;6027;48.576;9.180;2023-01-26T05:12:56;22.43;;;16.80;;
11935;SDS011;6027;48.576;9.180;2023-01-26T05:15:22;26.23;;;18.07;;
11935;SDS011;6027;48.576;9.180;2023-01-26T05:17:48;21.30;;;18.70;;
11935;SDS011;6027;48.576;9.180;2023-01-26T05:20:13;21.13;;;16.63;;
11935;SDS011;6027;48.576;9.180;2023-01-26T05:22:39;24.20;;;18.33;;
11935;SDS011;6027;48.576;9.180;2023-01-26T05:25:05;24.00;;;18.90;;
11935;SDS011;6027;48.576;9.180;2023-01-26T05:27:30;25.97;;;19.03;;
11935;SDS011;6027;48.576;9.180;2023-01-26T05:29:56;25.93;;;18.13;;
11935;SDS011;6027;48.576;9.180;2023-01-26T05:32:28;23.17;;;18.87;;
11935;SDS011;6027;48.576;9.180;2023-01-26T05:34:54;23.73;;;17.97;;
11935;SDS011;6027;48.576;9.180;2023-01-26T05:37:20;19.70;;;15.77;;
11935;SDS011;6027;48.576;9.180;2023-01-26T05:39:48;22.20;;;17.23;;
11935;SDS011;6027;48.576;9.180;2023-01-26T05:42:13;22.13;;;16.73;;
11935;SDS011;6027;48.576;9.180;2023-01-26T05:44:38;24.67;;;17.90;;
11935;SDS011;6027;48.576;9.180;2023-01-26T05:47:04;24.17;;;19.00;;
11935;SDS011;6027;48.576;9.180;2023-01-26T05:49:30;26.07;;;19.77;;
11935;SDS011;6027;48.576;9.180;2023-01-26T05:51:55;23.60;;;18.27;;
11935;SDS011;6027;48.576;9.180;2023-01-26T05:54:21;24.10;;;18.87;;
11935;SDS011;6027;48.576;9.180;2023-01-26T05:56:46;23.13;;;18.63;;
11935;SDS011;6027;48.576;9.180;2023-01-26T05:59:12;25.67;;;19.10;;
11935;SDS011;6027;48.576;9.180;2023-01-26T06:01:38;24.63;;;18.53;;
11935;SDS011;6027;48.576;9.180;2023-01-26T06:04:04;25.10;;;19.33;;
11935;SDS011;6027;48.576;9.180;2023-01-26T06:06:29;28.90;;;18.53;;
11935;SDS011;6027;48.576;9.180;2023-01-26T06:08:55;25.87;;;18.33;;
11935;SDS011;6027;48.576;9.180;2023-01-26T06:11:21;23.03;;;17.80;;
11935;SDS011;6027;48.576;9.180;2023-01-26T06:13:46;23.53;;;19.10;;
11935;SDS011;6027;48.576;9.180;2023-01-26T06:16:13;26.07;;;18.10;;
11935;SDS011;6027;48.576;9.180;2023-01-26T06:18:38;24.90;;;18.33;;
11935;SDS011;6027;48.576;9.180;2023-01-26T06:21:04;24.70;;;19.83;;
11935;SDS011;6027;48.576;9.180;2023-01-26T06:23:29;25.80;;;18.30;;
11935;SDS011;6027;48.576;9.180;2023-01-26T06:25:58;22.27;;;17.37;;
11935;SDS011;6027;48.576;9.180;2023-01-26T06:28:26;27.07;;;18.83;;
11935;SDS011;6027;48.576;9.180;2023-01-26T06:30:57;31.03;;;25.27;;
11935;SDS011;6027;48.576;9.180;2023-01-26T06:33:27;25.97;;;19.97;;
11935;SDS011;6027;48.576;9.180;2023-01-26T06:35:53;28.67;;;20.10;;
11935;SDS011;6027;48.576;9.180;2023-01-26T06:38:20;25.30;;;19.57;;
11935;SDS011;6027;48.576;9.180;2023-01-26T06:40:45;27.37;;;20.70;;
11935;SDS011;6027;48.576;9.180;2023-01-26T06:43:11;24.53;;;19.20;;
11935;SDS011;6027;48.576;9.180;2023-01-26T06:45:36;24.37;;;18.90;;
11935;SDS011;6027;48.576;9.180;2023-01-26T06:48:02;25.70;;;18.43;;
11935;SDS011;6027;48.576;9.180;2023-01-26T06:50:30;25.73;;;19.00;;
11935;SDS011;6027;48.576;9.180;2023-01-26T06:52:58;28.93;;;19.43;;
11935;SDS011;6027;48.576;9.180;2023-01-26T06:55:36;26.13;;;19.57;;
11935;SDS011;6027;48.576;9.180;2023-01-26T06:58:03;25.77;;;18.23;;
11935;SDS011;6027;48.576;9.180;2023-01-26T07:00:28;22.23;;;17.50;;
11935;SDS011;6027;48.576;9.180;2023-01-26T07:02:54;26.13;;;17.60;;
11935;SDS011;6027;48.576;9.180;2023-01-26T07:05:19;21.10;;;15.57;;
11935;SDS011;6027;48.576;9.180;2023-01-26T07:07:45;19.70;;;15.83;;
11935;SDS011;6027;48.576;9.180;2023-01-26T07:10:10;21.50;;;15.93;;
11935;SDS011;6027;48.576;9.180;2023-01-26T07:15:06;21.90;;;15.57;;
11935;SDS011;6027;48.576;9.180;2023-01-26T07:17:31;23.73;;;16.40;;
11935;SDS011;6027;48.576;9.180;2023-01-26T07:19:57;24.17;;;17.17;;
11935;SDS011;6027;48.576;9.180;2023-01-26T07:22:22;20.43;;;15.53;;
11935;SDS011;6027;48.576;9.180;2023-01-26T07:24:48;23.07;;;16.93;;
11935;SDS011;6027;48.576;9.180;2023-01-26T07:27:13;21.47;;;15.57;;
11935;SDS011;6027;48.576;9.180;2023-01-26T07:29:38;18.53;;;14.13;;
11935;SDS011;6027;48.576;9.180;2023-01-26T07:32:04;17.87;;;14.00;;
11935;SDS011;6027;48.576;9.180;2023-01-26T07:34:29;17.60;;;12.67;;
11935;SDS011;6027;48.576;9.180;2023-01-26T07:36:55;18.27;;;13.37;;
11935;SDS011;6027;48.576;9.180;2023-01-26T07:39:20;18.70;;;13.47;;
11935;SDS011;6027;48.576;9.180;2023-01-26T07:41:46;21.67;;;13.90;;
11935;SDS011;6027;48.576;9.180;2023-01-26T07:44:11;18.53;;;13.23;;
11935;SDS011;6027;48.576;9.180;2023-01-26T07:46:36;20.87;;;15.13;;
11935;SDS011;6027;48.576;9.180;2023-01-26T07:49:02;24.23;;;15.70;;
11935;SDS011;6027;48.576;9.180;2023-01-26T07:51:27;18.97;;;14.73;;
11935;SDS011;6027;48.576;9.180;2023-01-26T07:53:53;23.53;;;15.30;;
11935;SDS011;6027;48.576;9.180;2023-01-26T07:56:18;20.73;;;16.13;;
11935;SDS011;6027;48.576;9.180;2023-01-26T07:58:48;23.20;;;15.60;;
11935;SDS011;6027;48.576;9.180;2023-01-26T08:01:29;20.83;;;14.03;;
11935;SDS011;6027;48.576;9.180;2023-01-26T08:03:54;20.40;;;14.33;;
11935;SDS011;6027;48.576;9.180;2023-01-26T08:06:20;20.30;;;13.73;;
11935;SDS011;6027;48.576;9.180;2023-01-26T08:08:46;18.97;;;14.73;;
11935;SDS011;6027;48.576;9.180;2023-01-26T08:11:16;19.50;;;14.27;;
11935;SDS011;6027;48.576;9.180;2023-01-26T08:13:43;17.67;;;12.73;;
11935;SDS011;6027;48.576;9.180;2023-01-26T08:16:10;19.00;;;13.40;;
11935;SDS011;6027;48.576;9.180;2023-01-26T08:18:40;17.63;;;13.87;;
11935;SDS011;6027;48.576;9.180;2023-01-26T08:21:07;17.27;;;14.67;;
11935;SDS011;6027;48.576;9.180;2023-01-26T08:23:33;17.97;;;15.03;;
11935;SDS011;6027;48.576;9.180;2023-01-26T08:26:06;19.77;;;15.87;;
11935;SDS011;6027;48.576;9.180;2023-01-26T08:28:33;18.27;;;13.93;;
11935;SDS011;6027;48.576;9.180;2023-01-26T08:31:03;19.70;;;15.40;;
11935;SDS011;6027;48.576;9.180;2023-01-26T08:33:30;18.90;;;13.43;;
11935;SDS011;6027;48.576;9.180;2023-01-26T08:36:00;20.60;;;14.20;;
11935;SDS011;6027;48.576;9.180;2023-01-26T08:38:30;16.53;;;13.33;;
11935;SDS011;6027;48.576;9.180;2023-01-26T08:40:56;18.27;;;14.60;;
11935;SDS011;6027;48.576;9.180;2023-01-26T08:43:22;19.40;;;14.80;;
11935;SDS011;6027;48.576;9.180;2023-01-26T08:45:47;18.27;;;14.00;;
11935;SDS011;6027;48.576;9.180;2023-01-26T08:48:13;17.33;;;13.10;;
11935;SDS011;6027;48.576;9.180;2023-01-26T08:50:38;18.57;;;15.10;;
11935;SDS011;6027;48.576;9.180;2023-01-26T08:53:03;18.43;;;14.07;;
11935;SDS011;6027;48.576;9.180;2023-01-26T08:55:29;17.23;;;14.27;;
11935;SDS011;6027;48.576;9.180;2023-01-26T08:57:56;17.77;;;13.37;;
11935;SDS011;6027;48.576;9.180;2023-01-26T09:00:22;17.77;;;13.90;;
11935;SDS011;6027;48.576;9.180;2023-01-26T09:02:48;20.53;;;16.30;;
11935;SDS011;6027;48.576;9.180;2023-01-26T09:05:15;20.80;;;13.80;;
11935;SDS011;6027;48.576;9.180;2023-01-26T09:07:40;19.97;;;15.47;;
11935;SDS011;6027;48.576;9.180;2023-01-26T09:10:06;18.77;;;14.33;;
11935;SDS011;6027;48.576;9.180;2023-01-26T09:12:32;21.03;;;14.80;;
11935;SDS011;6027;48.576;9.180;2023-01-26T09:14:58;21.90;;;15.27;;
11935;SDS011;6027;48.576;9.180;2023-01-26T09:17:23;17.90;;;14.17;;
11935;SDS011;6027;48.576;9.180;2023-01-26T09:19:48;23.30;;;17.47;;
11935;SDS011;6027;48.576;9.180;2023-01-26T09:22:14;17.30;;;14.27;;
11935;SDS011;6027;48.576;9.180;2023-01-26T09:24:39;19.30;;;16.87;;
11935;SDS011;6027;48.576;9.180;2023-01-26T09:27:04;16.80;;;14.13;;
11935;SDS011;6027;48.576;9.180;2023-01-26T09:29:30;18.90;;;14.70;;
11935;SDS011;6027;48.576;9.180;2023-01-26T09:31:55;14.07;;;11.57;;
11935;SDS011;6027;48.576;9.180;2023-01-26T09:34:21;16.07;;;12.30;;
11935;SDS011;6027;48.576;9.180;2023-01-26T09:36:49;15.33;;;12.10;;
11935;SDS011;6027;48.576;9.180;2023-01-26T09:39:14;15.73;;;12.87;;
11935;SDS011;6027;48.576;9.180;2023-01-26T09:44:15;15.37;;;12.00;;
11935;SDS011;6027;48.576;9.180;2023-01-26T09:49:42;15.87;;;12.43;;
11935;SDS011;6027;48.576;9.180;2023-01-26T09:52:30;14.80;;;12.07;;
11935;SDS011;6027;48.576;9.180;2023-01-26T09:54:57;16.33;;;13.17;;
11935;SDS011;6027;48.576;9.180;2023-01-26T09:59:57;14.43;;;11.93;;
11935;SDS011;6027;48.576;9.180;2023-01-26T10:05:40;13.33;;;10.20;;
11935;SDS011;6027;48.576;9.180;2023-01-26T10:08:10;12.23;;;10.50;;
11935;SDS011;6027;48.576;9.180;2023-01-26T10:10:45;11.10;;;9.60;;
11935;SDS011;6027;48.576;9.180;2023-01-26T10:13:21;12.57;;;10.63;;
11935;SDS011;6027;48.576;9.180;2023-01-26T10:15:50;13.83;;;10.77;;
11935;SDS011;6027;48.576;9.180;2023-01-26T10:18:21;12.27;;;10.40;;
11935;SDS011;6027;48.576;9.180;2023-01-26T10:20:55;13.00;;;10.63;;
11935;SDS011;6027;48.576;9.180;2023-01-26T10:23:32;11.73;;;10.20;;
11935;SDS011;6027;48.576;9.180;2023-01-26T10:26:14;13.30;;;10.40;;
11935;SDS011;6027;48.576;9.180;2023-01-26T10:28:45;14.83;;;11.13;;
11935;SDS011;6027;48.576;9.180;2023-01-26T10:31:15;13.63;;;11.13;;
11935;SDS011;6027;48.576;9.180;2023-01-26T10:33:50;11.93;;;10.10;;
11935;SDS011;6027;48.576;9.180;2023-01-26T10:36:20;13.27;;;10.23;;
11935;SDS011;6027;48.576;9.180;2023-01-26T10:38:47;13.47;;;10.63;;
11935;SDS011;6027;48.576;9.180;2023-01-26T10:43:41;11.97;;;10.70;;
11935;SDS011;6027;48.576;9.180;2023-01-26T10:46:31;15.87;;;12.60;;
11935;SDS011;6027;48.576;9.180;2023-01-26T10:49:12;15.57;;;11.90;;
11935;SDS011;6027;48.576;9.180;2023-01-26T10:51:41;13.23;;;11.73;;
11935;SDS011;6027;48.576;9.180;2023-01-26T10:56:47;10.23;;;9.10;;
11935;SDS011;6027;48.576;9.180;2023-01-26T11:01:59;12.07;;;10.10;;
11935;SDS011;6027;48.576;9.180;2023-01-26T11:07:31;14.33;;;11.20;;
11935;SDS011;6027;48.576;9.180;2023-01-26T11:13:17;14.23;;;12.27;;
11935;SDS011;6027;48.576;9.180;2023-01-26T11:15:45;15.87;;;11.93;;
11935;SDS011;6027;48.576;9.180;2023-01-26T11:20:56;13.90;;;11.33;;
11935;SDS011;6027;48.576;9.180;2023-01-26T11:29:17;12.77;;;10.77;;
11935;SDS011;6027;48.576;9.180;2023-01-26T11:32:15;13.10;;;11.40;;
11935;SDS011;6027;48.576;9.180;2023-01-26T11:43:26;14.53;;;11.33;;
11935;SDS011;6027;48.576;9.180;2023-01-26T11:46:03;14.27;;;11.20;;
11935;SDS011;6027;48.576;9.180;2023-01-26T11:51:41;14.47;;;10.63;;
11935;SDS011;6027;48.576;9.180;2023-01-26T11:59:59;13.43;;;11.00;;
11935;SDS011;6027;48.576;9.180;2023-01-26T12:02:30;13.77;;;11.80;;
11935;SDS011;6027;48.576;9.180;2023-01-26T12:05:02;16.00;;;13.07;;
11935;SDS011;6027;48.576;9.180;2023-01-26T12:13:18;14.37;;;11.70;;
11935;SDS011;6027;48.576;9.180;2023-01-26T12:16:00;14.83;;;12.23;;
11935;SDS011;6027;48.576;9.180;2023-01-26T12:18:34;13.87;;;10.93;;
11935;SDS011;6027;48.576;9.180;2023-01-26T12:21:10;14.77;;;12.10;;
11935;SDS011;6027;48.576;9.180;2023-01-26T12:26:19;13.67;;;11.97;;
11935;SDS011;6027;48.576;9.180;2023-01-26T12:29:05;14.63;;;11.73;;
11935;SDS011;6027;48.576;9.180;2023-01-26T12:31:45;11.90;;;10.20;;
11935;SDS011;6027;48.576;9.180;2023-01-26T12:34:15;12.03;;;9.60;;
11935;SDS011;6027;48.576;9.180;2023-01-26T12:36:59;11.77;;;9.60;;
11935;SDS011;6027;48.576;9.180;2023-01-26T12:39:44;11.57;;;9.57;;
11935;SDS011;6027;48.576;9.180;2023-01-26T12:45:16;11.53;;;9.50;;
11935;SDS011;6027;48.576;9.180;2023-01-26T12:50:33;12.37;;;8.93;;
11935;SDS011;6027;48.576;9.180;2023-01-26T12:53:06;10.97;;;9.50;;
11935;SDS011;6027;48.576;9.180;2023-01-26T13:00:36;16.83;;;12.87;;
11935;SDS011;6027;48.576;9.180;2023-01-26T13:03:13;14.37;;;9.90;;
11935;SDS011;6027;48.576;9.180;2023-01-26T13:10:54;11.30;;;9.07;;
11935;SDS011;6027;48.576;9.180;2023-01-26T13:13:30;11.60;;;9.13;;
11935;SDS011;6027;48.576;9.180;2023-01-26T13:18:51;14.20;;;10.17;;
11935;SDS011;6027;48.576;9.180;2023-01-26T13:21:25;11.77;;;9.13;;
11935;SDS011;6027;48.576;9.180;2023-01-26T13:23:52;12.03;;;9.60;;
11935;SDS011;6027;48.576;9.180;2023-01-26T13:26:23;13.00;;;10.27;;
11935;SDS011;6027;48.576;9.180;2023-01-26T13:34:26;18.30;;;14.90;;
11935;SDS011;6027;48.576;9.180;2023-01-26T13:36:58;17.27;;;14.30;;
11935;SDS011;6027;48.576;9.180;2023-01-26T13:39:33;20.70;;;17.50;;
11935;SDS011;6027;48.576;9.180;2023-01-26T13:42:01;18.97;;;15.50;;
11935;SDS011;6027;48.576;9.180;2023-01-26T13:44:40;15.57;;;13.03;;
11935;SDS011;6027;48.576;9.180;2023-01-26T13:47:12;17.30;;;14.43;;
11935;SDS011;6027;48.576;9.180;2023-01-26T13:49:46;17.37;;;13.10;;
11935;SDS011;6027;48.576;9.180;2023-01-26T13:52:22;14.87;;;12.47;;
11935;SDS011;6027;48.576;9.180;2023-01-26T13:54:51;14.47;;;11.13;;
11935;SDS011;6027;48.576;9.180;2023-01-26T13:57:27;14.53;;;12.13;;
11935;SDS011;6027;48.576;9.180;2023-01-26T13:59:55;15.33;;;12.40;;
11935;SDS011;6027;48.576;9.180;2023-01-26T14:02:33;15.17;;;13.57;;
11935;SDS011;6027;48.576;9.180;2023-01-26T14:05:03;14.83;;;11.63;;
11935;SDS011;6027;48.576;9.180;2023-01-26T14:10:00;13.67;;;11.67;;
11935;SDS011;6027;48.576;9.180;2023-01-26T14:12:28;13.33;;;10.43;;
11935;SDS011;6027;48.576;9.180;2023-01-26T14:15:02;15.20;;;10.87;;
11935;SDS011;6027;48.576;9.180;2023-01-26T14:17:30;13.37;;;9.60;;
11935;SDS011;6027;48.576;9.180;2023-01-26T14:19:58;13.60;;;10.73;;
11935;SDS011;6027;48.576;9.180;2023-01-26T14:22:25;11.60;;;9.20;;
11935;SDS011;6027;48.576;9.180;2023-01-26T14:24:52;13.67;;;9.70;;
11935;SDS011;6027;48.576;9.180;2023-01-26T14:27:27;10.47;;;9.03;;
11935;SDS011;6027;48.576;9.180;2023-01-26T14:30:01;11.00;;;8.67;;
11935;SDS011;6027;48.576;9.180;2023-01-26T14:32:45;11.20;;;8.33;;
11935;SDS011;6027;48.576;9.180;2023-01-26T14:35:17;10.77;;;8.53;;
11935;SDS011;6027;48.576;9.180;2023-01-26T14:38:03;9.20;;;7.87;;
11935;SDS011;6027;48.576;9.180;2023-01-26T14:40:53;12.90;;;9.70;;
11935;SDS011;6027;48.576;9.180;2023-01-26T14:43:20;16.60;;;11.93;;
11935;SDS011;6027;48.576;9.180;2023-01-26T14:45:47;17.47;;;14.37;;
11935;SDS011;6027;48.576;9.180;2023-01-26T14:48:28;15.30;;;12.30;;
11935;SDS011;6027;48.576;9.180;2023-01-26T14:50:59;13.97;;;10.53;;
11935;SDS011;6027;48.576;9.180;2023-01-26T14:53:26;12.83;;;10.83;;
11935;SDS011;6027;48.576;9.180;2023-01-26T14:55:52;14.67;;;11.40;;
11935;SDS011;6027;48.576;9.180;2023-01-26T14:58:26;16.67;;;13.47;;
11935;SDS011;6027;48.576;9.180;2023-01-26T15:00:54;16.53;;;12.53;;
11935;SDS011;6027;48.576;9.180;2023-01-26T15:03:24;14.20;;;11.33;;
11935;SDS011;6027;48.576;9.180;2023-01-26T15:06:03;15.23;;;11.33;;
11935;SDS011;6027;48.576;9.180;2023-01-26T15:08:50;17.00;;;12.83;;
11935;SDS011;6027;48.576;9.180;2023-01-26T15:11:33;14.37;;;10.93;;
11935;SDS011;6027;48.576;9.180;2023-01-26T15:16:58;14.57;;;11.43;;
11935;SDS011;6027;48.576;9.180;2023-01-26T15:19:24;14.67;;;10.87;;
11935;SDS011;6027;48.576;9.180;2023-01-26T15:21:55;15.63;;;12.40;;
11935;SDS011;6027;48.576;9.180;2023-01-26T15:24:20;14.70;;;12.07;;
11935;SDS011;6027;48.576;9.180;2023-01-26T15:26:45;14.97;;;11.73;;
11935;SDS011;6027;48.576;9.180;2023-01-26T15:29:20;13.57;;;10.77;;
11935;SDS011;6027;48.576;9.180;2023-01-26T15:31:50;16.23;;;11.27;;
11935;SDS011;6027;48.576;9.180;2023-01-26T15:34:33;14.77;;;11.27;;
11935;SDS011;6027;48.576;9.180;2023-01-26T15:37:01;15.47;;;11.47;;
11935;SDS011;6027;48.576;9.180;2023-01-26T15:39:28;15.97;;;11.27;;
11935;SDS011;6027;48.576;9.180;2023-01-26T15:44:40;15.87;;;12.23;;
11935;SDS011;6027;48.576;9.180;2023-01-26T15:47:09;18.63;;;14.00;;
11935;SDS011;6027;48.576;9.180;2023-01-26T15:49:36;22.40;;;17.20;;
11935;SDS011;6027;48.576;9.180;2023-01-26T15:52:02;24.87;;;19.27;;
11935;SDS011;6027;48.576;9.180;2023-01-26T15:54:36;18.97;;;14.63;;
11935;SDS011;6027;48.576;9.180;2023-01-26T15:57:01;19.40;;;15.20;;
11935;SDS011;6027;48.576;9.180;2023-01-26T15:59:26;17.20;;;13.67;;
11935;SDS011;6027;48.576;9.180;2023-01-26T16:01:52;15.63;;;12.80;;
11935;SDS011;6027;48.576;9.180;2023-01-26T16:04:17;17.33;;;14.90;;
11935;SDS011;6027;48.576;9.180;2023-01-26T16:06:43;17.07;;;13.17;;
11935;SDS011;6027;48.576;9.180;2023-01-26T16:09:08;16.60;;;13.33;;
11935;SDS011;6027;48.576;9.180;2023-01-26T16:11:39;17.37;;;12.03;;
11935;SDS011;6027;48.576;9.180;2023-01-26T16:14:11;16.93;;;13.20;;
11935;SDS011;6027;48.576;9.180;2023-01-26T16:16:37;14.80;;;12.00;;
11935;SDS011;6027;48.576;9.180;2023-01-26T16:19:03;16.43;;;11.97;;
11935;SDS011;6027;48.576;9.180;2023-01-26T16:21:29;16.27;;;11.43;;
11935;SDS011;6027;48.576;9.180;2023-01-26T16:24:02;16.97;;;12.40;;
11935;SDS011;6027;48.576;9.180;2023-01-26T16:26:28;15.20;;;12.20;;
11935;SDS011;6027;48.576;9.180;2023-01-26T16:28:54;16.70;;;11.93;;
11935;SDS011;6027;48.576;9.180;2023-01-26T16:31:21;15.03;;;11.97;;
11935;SDS011;6027;48.576;9.180;2023-01-26T16:33:49;15.93;;;11.87;;
11935;SDS011;6027;48.576;9.180;2023-01-26T16:36:16;15.37;;;12.57;;